Time;durP1;ratioP1;P1;durP2;ratioP2;P2;SDS_P1;SDS_P2;PMS_P1;PMS_P2;Temp;Humidity;BMP_temperature;BMP_pressure;BME280_temperature;BME280_humidity;BME280_pressure;Samples;Min_cycle;Max_cycle;Signal;HPM_P1;HPM_P2
2022/06/03 00:02:22;;;;;;;5.05;3.00;;;;;;;25.08;47.77;98483.38;5371702;26;20439;-80
2022/06/03 00:05:14;;;;;;;5.57;2.90;;;;;;;25.17;47.36;98479.88;5391648;26;20048;-79
2022/06/03 00:07:41;;;;;;;7.03;3.35;;;;;;;24.52;48.94;98468.44;5391591;26;20349;-80
2022/06/03 00:10:14;;;;;;;5.35;2.97;;;;;;;24.34;50.55;98481.50;5391882;26;20099;-79
2022/06/03 00:12:54;;;;;;;7.97;2.83;;;;;;;24.61;49.87;98486.03;5372004;26;20120;-79
2022/06/03 00:15:36;;;;;;;7.82;2.60;;;;;;;25.23;47.35;98489.03;5371506;26;20103;-80
2022/06/03 00:18:31;;;;;;;6.07;2.90;;;;;;;25.03;47.66;98496.22;5391776;26;20385;-79
2022/06/03 00:21:02;;;;;;;5.07;2.70;;;;;;;24.58;48.59;98506.63;5371670;26;20139;-80
2022/06/03 00:24:20;;;;;;;6.78;3.12;;;;;;;24.50;48.94;98505.50;5391803;26;20073;-79
2022/06/03 00:27:08;;;;;;;5.87;3.15;;;;;;;23.36;52.27;98500.84;5366242;26;20067;-80
2022/06/03 00:29:44;;;;;;;7.00;3.30;;;;;;;23.89;51.13;98497.91;5391629;26;20052;-80
2022/06/03 00:32:33;;;;;;;7.90;3.22;;;;;;;24.07;51.58;98494.56;5391794;26;20398;-80
2022/06/03 00:35:23;;;;;;;6.50;3.42;;;;;;;24.65;49.66;98503.25;5391690;26;20090;-81
2022/06/03 00:37:56;;;;;;;6.75;2.90;;;;;;;24.11;51.76;98506.50;5371749;26;20127;-79
2022/06/03 00:40:51;;;;;;;6.10;3.05;;;;;;;23.64;53.13;98515.09;5371789;26;20419;-79
2022/06/03 00:43:46;;;;;;;6.40;3.00;;;;;;;23.74;53.04;98499.28;5391653;26;20063;-80
2022/06/03 00:46:50;;;;;;;7.22;3.33;;;;;;;24.06;52.02;98498.19;5391816;26;20063;-80
2022/06/03 00:49:46;;;;;;;6.68;3.03;;;;;;;24.09;52.04;98498.72;5391497;26;20131;-80
2022/06/03 00:52:34;;;;;;;7.57;3.40;;;;;;;23.50;53.21;98507.56;5371780;26;20066;-80
2022/06/03 00:55:41;;;;;;;7.95;2.92;;;;;;;23.38;53.48;98505.97;5391573;26;20457;-80
2022/06/03 00:58:29;;;;;;;7.12;3.10;;;;;;;24.28;50.87;98518.97;5391706;26;20113;-80
2022/06/03 01:01:08;;;;;;;6.57;2.90;;;;;;;24.40;50.12;98515.25;5391740;26;20098;-79
2022/06/03 01:03:57;;;;;;;7.97;3.33;;;;;;;24.65;49.40;98518.25;5391621;26;20048;-80
2022/06/03 01:06:47;;;;;;;8.48;3.10;;;;;;;25.06;48.87;98511.75;5391525;26;20068;-80
2022/06/03 01:09:52;;;;;;;6.62;3.12;;;;;;;24.90;49.25;98519.44;5391786;26;20075;-80
2022/06/03 01:12:38;;;;;;;7.68;3.40;;;;;;;24.70;49.44;98514.22;5391420;26;20055;-80
2022/06/03 01:15:22;;;;;;;5.97;3.20;;;;;;;24.52;49.11;98521.19;5391655;26;20506;-80
2022/06/03 01:18:23;;;;;;;6.07;3.10;;;;;;;24.15;49.80;98511.38;5391710;26;20139;-80
2022/06/03 01:20:58;;;;;;;6.47;3.10;;;;;;;23.89;50.40;98508.44;5391622;26;20060;-79
2022/06/03 01:23:37;;;;;;;8.93;3.47;;;;;;;24.19;48.85;98509.28;5391733;26;20102;-79
2022/06/03 01:26:19;;;;;;;7.68;3.00;;;;;;;24.70;47.35;98513.38;5371702;26;20079;-80
2022/06/03 01:28:49;;;;;;;5.97;3.00;;;;;;;24.58;47.61;98518.00;5391604;26;20104;-79
2022/06/03 01:31:54;;;;;;;7.60;3.35;;;;;;;24.67;47.60;98514.50;5391983;26;20157;-80
2022/06/03 01:34:48;;;;;;;7.10;3.08;;;;;;;25.13;47.26;98512.00;5399145;26;20059;-80
2022/06/03 01:37:33;;;;;;;6.20;3.17;;;;;;;25.14;46.44;98518.94;5394326;26;20110;-80
2022/06/03 01:40:20;;;;;;;5.43;2.75;;;;;;;24.72;47.81;98517.53;5371869;26;20056;-80
2022/06/03 01:42:56;;;;;;;6.35;2.95;;;;;;;24.46;48.67;98513.88;5391419;26;20119;-80
2022/06/03 01:45:46;;;;;;;6.53;3.25;;;;;;;24.79;47.71;98512.53;5391201;26;20055;-80
2022/06/03 01:48:35;;;;;;;7.85;3.45;;;;;;;24.07;50.47;98502.47;5371356;26;20064;-79
2022/06/03 01:51:31;;;;;;;5.78;3.12;;;;;;;24.11;51.32;98499.41;5391397;26;20075;-80
2022/06/03 01:53:58;;;;;;;6.93;3.65;;;;;;;24.29;50.55;98496.09;5391222;26;20066;-80
2022/06/03 01:56:47;;;;;;;6.80;3.20;;;;;;;25.01;48.25;98499.00;5391374;26;20111;-80
2022/06/03 01:59:46;;;;;;;6.45;3.12;;;;;;;24.69;49.59;98501.16;5391039;26;20074;-81
2022/06/03 02:02:31;;;;;;;5.03;2.70;;;;;;;24.61;49.23;98496.59;5363618;26;20074;-79
2022/06/03 02:05:29;;;;;;;7.00;3.08;;;;;;;25.12;47.82;98502.44;5391271;26;20104;-79
2022/06/03 02:08:11;;;;;;;6.12;2.97;;;;;;;24.51;48.89;98501.91;5391133;26;20173;-80
2022/06/03 02:10:58;;;;;;;7.72;3.55;;;;;;;25.16;45.86;98499.34;5371316;26;20082;-79
2022/06/03 02:13:37;;;;;;;;;;;;;;;24.63;46.63;98492.00;5371246;26;20070;-80
2022/06/03 02:16:26;;;;;;;6.10;3.33;;;;;;;25.04;44.51;98492.59;5391406;26;20006;-80
2022/06/03 02:19:17;;;;;;;5.65;2.90;;;;;;;24.52;45.22;98487.72;5391297;26;20056;-79
2022/06/03 02:22:22;;;;;;;6.53;3.05;;;;;;;24.51;44.67;98482.59;5391059;26;20478;-80
2022/06/03 02:25:22;;;;;;;6.95;3.17;;;;;;;24.05;46.10;98480.72;5391240;26;20100;-79
2022/06/03 02:28:07;;;;;;;5.78;3.28;;;;;;;23.79;47.23;98489.16;5391204;26;20101;-80
2022/06/03 02:31:11;;;;;;;6.10;2.87;;;;;;;23.35;48.21;98486.00;5391340;26;20091;-80
2022/06/03 02:34:09;;;;;;;7.50;3.10;;;;;;;24.05;46.44;98484.19;5336719;26;20098;-80
2022/06/03 02:37:00;;;;;;;5.18;3.00;;;;;;;24.62;45.03;98481.59;5391226;26;20100;-80
2022/06/03 02:40:00;;;;;;;6.80;3.40;;;;;;;24.22;45.43;98486.09;5391016;26;20417;-79
2022/06/03 02:43:01;;;;;;;5.93;2.90;;;;;;;24.00;46.34;98483.75;5391022;26;20119;-80
2022/06/03 02:45:50;;;;;;;6.93;3.10;;;;;;;23.47;46.76;98484.09;5391111;26;20066;-79
2022/06/03 02:48:45;;;;;;;6.45;3.22;;;;;;;23.38;46.60;98482.28;5370870;26;20135;-81
2022/06/03 02:51:20;;;;;;;6.78;3.03;;;;;;;22.29;49.12;98482.88;5391179;26;20384;-80
2022/06/03 02:54:23;;;;;;;9.65;3.40;;;;;;;23.25;46.71;98484.31;5390933;26;20478;-79
2022/06/03 02:57:20;;;;;;;8.07;3.47;;;;;;;22.24;48.61;98482.44;5364627;26;20043;-80
2022/06/03 03:00:09;;;;;;;10.35;3.72;;;;;;;23.01;47.56;98479.41;5391146;26;20442;-80
2022/06/03 03:02:57;;;;;;;8.20;3.37;;;;;;;23.03;48.21;98483.56;5390997;26;20059;-80
2022/06/03 03:05:24;;;;;;;6.72;3.10;;;;;;;22.72;49.18;98482.72;5391037;26;20311;-80
2022/06/03 03:08:20;;;;;;;7.70;3.47;;;;;;;22.88;48.88;98489.34;5390892;26;20418;-80
2022/06/03 03:11:26;;;;;;;6.12;3.12;;;;;;;23.18;48.14;98491.94;5390885;26;20070;-80
2022/06/03 03:14:12;;;;;;;11.63;3.45;;;;;;;23.16;48.94;98499.13;5390485;26;20079;-80
2022/06/03 03:17:03;;;;;;;6.32;3.20;;;;;;;23.24;48.29;98501.91;5390740;26;20074;-80
2022/06/03 03:19:56;;;;;;;5.47;3.00;;;;;;;23.18;48.36;98504.25;5390907;26;20409;-79
2022/06/03 03:22:27;;;;;;;7.82;3.67;;;;;;;22.48;50.17;98509.31;5371107;26;20074;-79
2022/06/03 03:25:16;;;;;;;7.10;3.45;;;;;;;22.37;50.96;98505.91;5370618;26;20561;-80
2022/06/03 03:28:04;;;;;;;8.52;3.47;;;;;;;21.78;52.34;98506.38;5391003;26;20469;-79
2022/06/03 03:31:16;;;;;;;7.10;2.95;;;;;;;22.73;49.18;98510.69;5391048;26;20047;-80
2022/06/03 03:34:05;;;;;;;7.00;3.25;;;;;;;22.69;48.07;98509.28;5278237;27;20076;-80
2022/06/03 03:36:53;;;;;;;7.75;3.72;;;;;;;22.91;48.41;98513.56;5278265;27;20120;-80
2022/06/03 03:39:42;;;;;;;6.95;3.40;;;;;;;23.54;47.39;98514.19;5371233;26;20137;-80
2022/06/03 03:42:24;;;;;;;6.18;3.15;;;;;;;23.84;47.14;98523.84;5392088;26;20044;-79
2022/06/03 03:45:29;;;;;;;5.87;3.10;;;;;;;24.19;46.10;98525.09;5391770;26;20063;-80
2022/06/03 03:48:34;;;;;;;6.75;2.87;;;;;;;25.16;43.80;98530.19;5348967;26;20103;-79
2022/06/03 03:51:10;;;;;;;7.97;2.80;;;;;;;25.93;41.42;98538.50;5392189;26;20142;-80
2022/06/03 03:53:49;;;;;;;5.72;2.70;;;;;;;26.29;39.94;98545.63;5391609;26;20096;-80
2022/06/03 03:56:47;;;;;;;5.85;2.78;;;;;;;26.49;39.95;98547.13;5392096;26;20442;-80
2022/06/03 03:59:20;;;;;;;;;;;;;;;27.21;38.67;98553.87;5392226;26;20124;-80
2022/06/03 04:02:11;;;;;;;5.20;2.70;;;;;;;27.91;37.00;98553.66;5392083;26;19974;-80
2022/06/03 04:05:06;;;;;;;4.18;2.58;;;;;;;28.57;36.54;98551.88;5391996;26;20046;-80
2022/06/03 04:07:47;;;;;;;9.10;2.90;;;;;;;29.29;35.72;98558.06;5391796;26;20363;-81
2022/06/03 04:10:35;;;;;;;6.47;2.87;;;;;;;29.83;34.34;98566.97;5391965;26;20115;-80
2022/06/03 04:13:43;;;;;;;8.52;2.72;;;;;;;30.43;32.63;98566.25;5391436;26;20051;-81
2022/06/03 04:16:48;;;;;;;6.82;2.75;;;;;;;30.98;31.56;98567.75;5372186;26;20110;-80
2022/06/03 04:19:36;;;;;;;5.93;2.90;;;;;;;31.61;31.16;98561.03;5397348;26;20164;-81
2022/06/03 04:22:14;;;;;;;5.25;3.03;;;;;;;31.99;29.26;98566.19;5372908;26;20148;-80
2022/06/03 04:25:31;;;;;;;6.87;2.58;;;;;;;32.02;29.96;98565.81;5391841;26;20110;-80
2022/06/03 04:28:44;;;;;;;6.40;2.80;;;;;;;32.17;31.64;98569.25;5307485;26;20398;-81
2022/06/03 04:31:16;;;;;;;5.37;2.87;;;;;;;32.57;31.16;98568.81;5335150;26;20088;-80
2022/06/03 04:34:18;;;;;;;5.10;2.40;;;;;;;32.17;30.62;98568.41;5399188;26;20060;-81
2022/06/03 04:37:03;;;;;;;5.50;2.72;;;;;;;32.48;29.19;98574.28;5396301;26;20062;-80
2022/06/03 04:39:58;;;;;;;4.45;2.50;;;;;;;32.55;30.22;98574.34;5395460;26;20114;-80
2022/06/03 04:43:08;;;;;;;4.70;2.70;;;;;;;33.28;29.84;98577.53;5372976;26;20075;-80
2022/06/03 04:46:13;;;;;;;6.75;2.87;;;;;;;31.86;32.96;98579.38;5371814;26;20055;-78
2022/06/03 04:49:00;;;;;;;7.90;3.15;;;;;;;31.43;34.18;98575.75;5391145;26;20119;-78
2022/06/03 04:51:43;;;;;;;;;;;;;;;32.91;31.42;98582.25;5392074;26;20099;-78
2022/06/03 04:54:28;;;;;;;6.82;2.60;;;;;;;32.62;30.61;98585.06;5371839;26;19973;-78
2022/06/03 04:57:32;;;;;;;7.25;2.65;;;;;;;33.49;29.66;98595.34;5391359;26;20442;-78
2022/06/03 05:00:27;;;;;;;9.15;2.92;;;;;;;33.49;28.93;98598.03;5391733;26;20108;-78
2022/06/03 05:03:28;;;;;;;8.38;3.12;;;;;;;32.85;31.02;98603.56;5390989;26;20065;-78
2022/06/03 05:06:24;;;;;;;7.22;2.70;;;;;;;31.26;32.22;98597.31;5391618;26;20075;-78
2022/06/03 05:09:39;;;;;;;6.35;3.05;;;;;;;31.31;32.08;98602.06;5371106;26;20118;-78
2022/06/03 05:12:33;;;;;;;7.00;3.25;;;;;;;33.67;28.89;98609.84;5306248;26;20412;-78
2022/06/03 05:15:00;;;;;;;5.45;2.90;;;;;;;30.95;32.29;98607.25;5371226;26;20115;-78
2022/06/03 05:17:48;;;;;;;5.78;2.60;;;;;;;30.41;32.71;98608.19;5391068;26;20052;-78
2022/06/03 05:20:37;;;;;;;6.55;3.10;;;;;;;29.41;34.44;98609.00;5391405;26;20394;-78
2022/06/03 05:23:08;;;;;;;6.80;3.37;;;;;;;29.24;34.41;98611.75;5371207;26;20111;-78
2022/06/03 05:25:38;;;;;;;8.40;3.15;;;;;;;27.67;36.67;98613.59;5391382;26;20048;-78
2022/06/03 05:28:27;;;;;;;8.38;3.17;;;;;;;28.98;35.66;98605.81;5391466;26;20116;-78
2022/06/03 05:30:56;;;;;;;6.32;3.12;;;;;;;28.50;36.53;98610.12;5391277;26;20461;-78
2022/06/03 05:33:26;;;;;;;6.62;3.20;;;;;;;29.45;35.08;98615.63;5391380;26;20449;-78
2022/06/03 05:35:56;;;;;;;7.60;3.20;;;;;;;27.94;38.22;98614.31;5391477;26;20198;-78
2022/06/03 05:38:42;;;;;;;7.72;3.40;;;;;;;28.88;36.12;98607.78;5390867;26;20429;-78
2022/06/03 05:44:26;;;;;;;4.53;2.33;;;;;;;28.34;37.16;98599.50;5390948;26;20055;-78
2022/06/03 05:47:09;;;;;;;7.18;3.12;;;;;;;28.46;36.43;98601.66;5371328;26;20114;-78
2022/06/03 05:49:38;;;;;;;6.43;3.10;;;;;;;29.49;34.29;98606.37;5391127;26;20103;-78
2022/06/03 05:52:14;;;;;;;5.80;2.75;;;;;;;29.83;34.47;98612.19;5391000;26;20048;-78
2022/06/03 05:54:58;;;;;;;5.80;3.13;;;;;;;29.61;33.42;98621.75;5390965;26;20517;-78
2022/06/03 05:57:54;;;;;;;5.32;2.65;;;;;;;29.57;33.60;98623.13;5370871;26;20106;-77
2022/06/03 06:00:39;;;;;;;5.30;2.70;;;;;;;28.65;35.72;98623.56;5391305;26;20115;-78
2022/06/03 06:03:20;;;;;;;5.87;3.00;;;;;;;28.97;35.03;98626.22;5371046;26;20213;-78
2022/06/03 06:06:00;;;;;;;7.40;3.12;;;;;;;28.99;35.87;98621.56;5370318;26;20115;-79
2022/06/03 06:08:46;;;;;;;5.50;2.75;;;;;;;28.61;36.07;98616.94;5389750;26;20082;-79
2022/06/03 06:11:19;;;;;;;;;;;;;;;27.57;38.59;98618.16;5388073;26;20059;-78
2022/06/03 06:13:58;;;;;;;6.18;3.03;;;;;;;27.84;37.88;98617.09;5390303;26;19988;-78
2022/06/03 06:16:41;;;;;;;7.28;3.47;;;;;;;28.57;37.05;98610.28;5389609;26;20099;-78
2022/06/03 06:19:29;;;;;;;6.55;3.42;;;;;;;28.22;39.03;98621.00;5369978;26;20052;-78
2022/06/03 06:21:55;;;;;;;8.20;3.22;;;;;;;27.62;37.88;98620.31;5389576;26;20115;-77
2022/06/03 06:24:35;;;;;;;5.47;3.08;;;;;;;26.71;39.76;98617.28;5390476;26;20069;-77
2022/06/03 06:27:40;;;;;;;6.15;2.92;;;;;;;27.81;38.04;98622.72;5389152;26;20428;-78
2022/06/03 06:30:21;;;;;;;7.10;3.10;;;;;;;28.15;37.87;98619.16;5370663;26;20636;-78
2022/06/03 06:33:03;;;;;;;9.45;3.40;;;;;;;28.77;35.85;98603.63;5390305;26;20108;-78
2022/06/03 06:35:42;;;;;;;7.82;3.62;;;;;;;28.05;38.46;98610.53;5390062;26;20085;-78
2022/06/03 06:38:35;;;;;;;7.45;3.35;;;;;;;28.53;36.30;98610.62;5390505;26;20096;-78
2022/06/03 06:41:20;;;;;;;7.15;3.50;;;;;;;28.27;37.11;98606.41;5389664;26;20074;-78
2022/06/03 06:43:56;;;;;;;7.20;3.37;;;;;;;27.49;39.73;98609.31;5370153;26;20153;-78
2022/06/03 06:46:35;;;;;;;6.65;3.50;;;;;;;27.32;40.18;98614.53;5389160;26;20059;-78
2022/06/03 06:49:10;;;;;;;8.63;3.60;;;;;;;27.53;38.89;98610.66;5389748;26;20134;-78
2022/06/03 06:51:56;;;;;;;6.68;3.30;;;;;;;27.98;38.14;98605.06;5389865;26;20121;-78
2022/06/03 06:54:39;;;;;;;8.27;3.50;;;;;;;27.98;39.87;98615.66;5389823;26;20323;-78
2022/06/03 06:57:20;;;;;;;13.98;3.95;;;;;;;28.70;37.47;98603.47;5389130;26;20068;-78
2022/06/03 07:00:07;;;;;;;15.52;5.40;;;;;;;28.36;37.19;98608.94;5370089;26;20484;-78
2022/06/03 07:02:51;;;;;;;13.40;4.62;;;;;;;27.94;37.55;98595.75;5388837;26;20100;-78
2022/06/03 07:05:33;;;;;;;8.90;3.92;;;;;;;28.97;37.86;98598.84;5390345;26;20075;-79
2022/06/03 07:08:22;;;;;;;12.73;4.20;;;;;;;28.80;38.39;98596.16;5390855;26;20524;-78
2022/06/03 07:10:55;;;;;;;11.93;4.00;;;;;;;28.60;37.71;98594.00;5370458;26;20074;-78
2022/06/03 07:13:26;;;;;;;8.95;4.15;;;;;;;29.33;36.06;98600.06;5390604;26;20724;-78
2022/06/03 07:15:56;;;;;;;6.68;3.12;;;;;;;30.06;34.91;98601.59;5390071;26;20107;-78
2022/06/03 07:21:57;;;;;;;9.45;3.53;;;;;;;28.84;36.16;98585.22;5373375;26;20434;-77
2022/06/03 07:24:56;;;;;;;39.90;8.45;;;;;;;28.57;37.59;98597.00;5390634;26;20058;-77
2022/06/03 07:27:28;;;;;;;22.67;6.10;;;;;;;27.98;39.46;98589.16;5390007;26;20147;-78
2022/06/03 07:30:11;;;;;;;17.27;6.05;;;;;;;28.72;40.42;98590.87;5370681;26;20131;-78
2022/06/03 07:32:46;;;;;;;9.68;4.20;;;;;;;29.24;37.86;98592.28;5370857;26;20131;-79
2022/06/03 07:35:45;;;;;;;7.05;4.10;;;;;;;29.03;38.75;98595.47;5370703;26;20458;-78
2022/06/03 07:38:18;;;;;;;7.95;4.15;;;;;;;29.06;38.03;98590.69;5352614;26;20096;-78
2022/06/03 07:41:07;;;;;;;7.62;3.70;;;;;;;29.00;37.42;98599.31;5390302;26;20100;-78
2022/06/03 07:43:56;;;;;;;7.40;3.20;;;;;;;29.03;37.94;98600.78;5369896;26;20063;-78
2022/06/03 07:46:28;;;;;;;10.43;3.85;;;;;;;28.87;36.55;98596.31;5370104;26;20083;-78
2022/06/03 07:48:55;;;;;;;6.80;3.65;;;;;;;29.81;36.94;98597.41;5371122;26;20067;-79
2022/06/03 07:51:31;;;;;;;10.10;3.80;;;;;;;30.05;36.42;98599.09;5390025;26;20438;-79
2022/06/03 07:54:27;;;;;;;10.13;3.60;;;;;;;30.05;36.23;98597.25;5371590;26;20082;-78
2022/06/03 07:57:07;;;;;;;7.80;4.15;;;;;;;28.98;36.28;98587.22;5390392;26;20103;-78
2022/06/03 07:59:36;;;;;;;7.57;3.40;;;;;;;29.36;36.94;98585.63;5391046;26;20466;-78
2022/06/03 08:02:11;;;;;;;8.43;4.32;;;;;;;28.18;39.16;98582.56;5370009;26;20130;-78
2022/06/03 08:04:38;;;;;;;8.68;4.12;;;;;;;29.53;37.71;98584.56;5390635;26;20059;-79
2022/06/03 08:13:00;;;;;;;7.10;3.55;;;;;;;30.88;34.43;98588.50;5372940;26;20469;-79
2022/06/03 08:15:35;;;;;;;6.25;3.80;;;;;;;30.83;34.93;98585.53;5388996;26;20059;-79
2022/06/03 08:18:05;;;;;;;9.50;4.05;;;;;;;29.20;37.34;98580.34;5390206;26;20111;-78
2022/06/03 08:21:00;;;;;;;8.35;3.72;;;;;;;30.50;34.51;98587.62;5390813;26;20159;-76
2022/06/03 08:23:33;;;;;;;8.57;3.42;;;;;;;30.46;34.66;98587.19;5390313;26;20123;-76
2022/06/03 08:26:04;;;;;;;8.57;3.85;;;;;;;30.36;34.41;98589.25;5370288;26;20087;-79
2022/06/03 08:28:35;;;;;;;7.60;3.47;;;;;;;31.11;33.28;98593.75;5390899;26;20111;-78
2022/06/03 08:31:05;;;;;;;9.20;3.65;;;;;;;30.25;34.85;98592.34;5389977;26;20072;-78
2022/06/03 08:33:47;;;;;;;8.02;3.75;;;;;;;31.12;32.77;98592.75;5370071;26;20056;-78
2022/06/03 08:36:18;;;;;;;6.97;3.40;;;;;;;31.55;32.30;98606.28;5390138;26;20339;-79
2022/06/03 08:38:49;;;;;;;9.40;3.58;;;;;;;31.91;31.15;98609.03;5390574;26;20068;-79
2022/06/03 08:41:34;;;;;;;8.05;3.80;;;;;;;31.99;32.13;98608.88;5369602;26;20123;-79
2022/06/03 08:44:17;;;;;;;7.70;3.70;;;;;;;31.43;32.90;98615.75;5390426;26;20108;-79
2022/06/03 08:46:53;;;;;;;8.20;3.80;;;;;;;31.93;32.75;98621.16;5389708;26;20062;-79
2022/06/03 08:49:23;;;;;;;;;;;;;;;31.68;32.39;98617.94;5370937;26;20055;-79
2022/06/03 08:51:55;;;;;;;8.63;3.70;;;;;;;32.07;30.74;98611.44;5390315;26;19987;-79
2022/06/03 08:54:27;;;;;;;9.93;3.50;;;;;;;32.20;31.57;98618.75;5369893;26;20513;-79
2022/06/03 08:56:57;;;;;;;10.25;4.15;;;;;;;33.02;30.50;98624.47;5389632;26;20488;-78
2022/06/03 09:00:06;;;;;;;10.18;4.10;;;;;;;32.06;30.85;98611.63;5370693;26;20112;-78
2022/06/03 09:03:25;;;;;;;7.97;3.58;;;;;;;32.33;29.81;98607.44;5370629;26;20082;-78
2022/06/03 09:05:58;;;;;;;8.30;4.37;;;;;;;33.61;29.02;98612.50;5339894;26;20095;-79
2022/06/03 09:08:33;;;;;;;7.47;3.70;;;;;;;31.92;32.39;98603.50;5369897;26;20130;-79
2022/06/03 09:11:08;;;;;;;8.43;4.25;;;;;;;31.84;32.93;98606.25;5370357;26;20067;-79
2022/06/03 09:13:57;;;;;;;7.57;3.85;;;;;;;31.82;30.70;98602.12;5369851;26;20141;-79
2022/06/03 09:16:26;;;;;;;8.73;4.22;;;;;;;32.66;32.64;98611.22;5368841;26;20127;-79
2022/06/03 09:18:57;;;;;;;9.60;4.47;;;;;;;32.45;31.14;98600.56;5370903;26;20070;-79
2022/06/03 09:21:27;;;;;;;8.43;3.78;;;;;;;32.43;29.72;98603.44;5369488;26;20115;-79
2022/06/03 09:24:17;;;;;;;7.43;3.78;;;;;;;31.86;31.25;98595.41;5369836;26;20126;-78
2022/06/03 09:26:47;;;;;;;8.60;4.25;;;;;;;32.20;32.18;98600.06;5369845;26;20131;-78
2022/06/03 09:29:15;;;;;;;8.32;3.87;;;;;;;32.45;31.69;98597.91;5389868;26;20071;-77
2022/06/03 09:31:50;;;;;;;9.13;4.30;;;;;;;32.97;30.38;98605.53;5390156;26;20055;-78
2022/06/03 09:34:21;;;;;;;7.68;3.70;;;;;;;33.08;30.33;98607.66;5390618;26;20153;-78
2022/06/03 09:36:49;;;;;;;8.45;3.40;;;;;;;31.88;31.63;98612.88;5390156;26;20063;-77
2022/06/03 09:39:37;;;;;;;7.60;3.87;;;;;;;32.86;30.11;98613.25;5390439;26;20459;-76
2022/06/03 09:42:05;;;;;;;8.32;3.45;;;;;;;32.38;31.73;98619.19;5369448;26;20113;-76
2022/06/03 09:44:32;;;;;;;6.90;3.10;;;;;;;32.49;32.84;98617.84;5389416;26;20408;-76
2022/06/03 09:47:02;;;;;;;7.00;3.10;;;;;;;31.77;32.12;98620.53;5389210;26;20052;-76
2022/06/03 09:49:30;;;;;;;6.90;3.12;;;;;;;32.22;31.74;98619.38;5388551;26;20055;-77
2022/06/03 09:51:57;;;;;;;6.80;3.45;;;;;;;32.91;30.61;98608.16;5390167;26;20056;-78
2022/06/03 09:54:26;;;;;;;5.85;3.17;;;;;;;32.69;30.02;98602.81;5389673;26;20130;-77
2022/06/03 09:56:56;;;;;;;6.78;3.20;;;;;;;33.44;28.49;98603.97;5368963;26;20124;-78
2022/06/03 09:59:24;;;;;;;7.30;3.10;;;;;;;31.84;29.91;98608.94;5390450;26;20779;-78
2022/06/03 10:01:52;;;;;;;6.07;3.22;;;;;;;32.12;28.96;98601.03;5369867;26;20130;-78
2022/06/03 10:04:21;;;;;;;6.93;3.30;;;;;;;31.22;32.08;98603.16;5389790;26;20075;-78
2022/06/03 10:06:51;;;;;;;6.55;2.80;;;;;;;32.13;31.23;98607.19;5369240;26;20055;-78
2022/06/03 10:17:48;;;;;;;5.65;2.85;;;;;;;31.07;30.59;98595.12;5389765;26;20107;-78
2022/06/03 10:20:17;;;;;;;5.72;3.08;;;;;;;30.57;30.02;98603.72;5389837;26;20114;-78
2022/06/03 10:22:45;;;;;;;5.60;3.08;;;;;;;31.38;31.00;98595.00;5390418;26;20359;-78
2022/06/03 10:25:12;;;;;;;6.07;2.42;;;;;;;31.37;32.20;98610.16;5389479;26;20126;-78
2022/06/03 10:27:39;;;;;;;5.47;2.92;;;;;;;31.11;30.98;98599.09;5389500;26;20075;-78
2022/06/03 10:30:08;;;;;;;7.72;3.08;;;;;;;31.46;31.58;98602.03;5390293;26;20457;-78
2022/06/03 10:32:36;;;;;;;5.97;3.15;;;;;;;31.13;31.12;98597.06;5389820;26;20067;-78
2022/06/03 10:35:15;;;;;;;5.78;2.80;;;;;;;31.07;32.28;98597.81;5389807;26;20070;-78
2022/06/03 10:37:50;;;;;;;7.53;3.00;;;;;;;31.04;31.76;98588.31;5390026;26;20492;-78
2022/06/03 10:40:18;;;;;;;5.72;2.80;;;;;;;30.85;31.21;98601.38;5389758;26;20123;-78
2022/06/03 10:42:46;;;;;;;7.12;2.97;;;;;;;31.94;30.92;98593.44;5390866;26;20067;-78
2022/06/03 10:45:14;;;;;;;5.60;2.62;;;;;;;32.29;29.38;98593.63;5370298;26;20068;-78
2022/06/03 10:47:46;;;;;;;8.07;3.00;;;;;;;33.43;28.41;98597.00;5389821;26;20563;-79
2022/06/03 10:50:34;;;;;;;5.35;2.60;;;;;;;32.45;30.04;98593.38;5390669;26;20052;-79
2022/06/03 11:02:14;;;;;;;4.12;2.12;;;;;;;32.90;25.73;98577.94;5390775;26;20118;-78
2022/06/03 11:04:41;;;;;;;4.03;2.12;;;;;;;33.08;27.12;98578.25;5390802;26;20091;-78
2022/06/03 11:07:24;;;;;;;9.35;2.78;;;;;;;33.00;25.30;98567.72;5389436;26;20070;-78
2022/06/03 11:10:15;;;;;;;3.67;2.28;;;;;;;32.81;26.83;98560.34;5391235;26;20055;-78
2022/06/03 11:13:04;;;;;;;8.05;2.95;;;;;;;33.47;22.72;98558.09;5391154;26;20055;-78
2022/06/03 11:15:36;;;;;;;8.48;3.45;;;;;;;34.29;26.26;98564.31;5389464;26;20067;-79
2022/06/03 11:18:16;;;;;;;7.05;3.25;;;;;;;33.78;25.92;98567.47;5390797;26;20435;-79
2022/06/03 11:20:46;;;;;;;8.48;3.17;;;;;;;33.53;26.31;98564.53;5389937;26;20100;-80
2022/06/03 11:23:14;;;;;;;6.80;2.80;;;;;;;34.44;25.51;98562.28;5391187;26;20421;-79
2022/06/03 11:25:50;;;;;;;9.77;3.22;;;;;;;33.43;24.90;98551.53;5369531;26;20429;-80
2022/06/03 11:28:21;;;;;;;5.85;2.75;;;;;;;33.30;27.98;98551.44;5390180;26;20119;-80
2022/06/03 11:31:11;;;;;;;6.12;3.00;;;;;;;33.83;25.20;98552.47;5390658;26;20071;-79
2022/06/03 11:33:47;;;;;;;6.35;3.10;;;;;;;33.15;26.06;98543.53;5370998;26;20064;-79
2022/06/03 11:36:22;;;;;;;6.47;3.00;;;;;;;33.19;25.83;98535.97;5388952;26;20054;-79
2022/06/03 11:39:03;;;;;;;5.75;2.70;;;;;;;33.19;25.24;98525.25;5390674;26;20073;-79
2022/06/03 11:41:48;;;;;;;4.60;2.62;;;;;;;32.34;27.27;98529.81;5390519;26;20203;-80
2022/06/03 11:44:51;;;;;;;5.50;2.90;;;;;;;32.80;26.39;98532.81;5390464;26;20103;-79
2022/06/03 11:47:29;;;;;;;5.60;2.90;;;;;;;32.53;25.93;98523.78;5389520;26;20107;-79
2022/06/03 11:49:57;;;;;;;5.45;2.90;;;;;;;32.53;28.21;98522.94;5370013;26;20064;-79
2022/06/03 11:52:24;;;;;;;5.82;3.10;;;;;;;33.44;25.89;98521.06;5390249;26;20410;-80
2022/06/03 11:54:54;;;;;;;9.68;3.05;;;;;;;33.98;25.23;98520.22;5370386;26;20064;-80
2022/06/03 11:57:21;;;;;;;8.13;3.03;;;;;;;33.13;26.13;98518.84;5388834;26;20318;-79
2022/06/03 11:59:56;;;;;;;6.78;3.15;;;;;;;32.11;28.15;98518.47;5391085;26;20106;-80
2022/06/03 12:02:34;;;;;;;6.43;2.58;;;;;;;31.98;27.41;98505.00;5390423;26;20080;-79
2022/06/03 12:05:24;;;;;;;6.95;3.15;;;;;;;32.56;26.73;98505.72;5370128;26;20315;-79
2022/06/03 12:07:59;;;;;;;4.30;2.30;;;;;;;32.92;26.26;98502.91;5389636;26;20401;-79
2022/06/03 12:10:40;;;;;;;4.57;2.15;;;;;;;32.94;26.16;98506.19;5390126;26;20127;-80
2022/06/03 12:13:33;;;;;;;5.53;2.40;;;;;;;32.39;26.93;98495.31;5370780;26;20064;-78
2022/06/03 12:16:00;;;;;;;4.37;2.30;;;;;;;33.56;25.51;98499.91;5384855;26;20062;-80
2022/06/03 12:18:39;;;;;;;4.28;2.45;;;;;;;32.95;26.83;98497.16;5390283;26;20118;-79
2022/06/03 12:21:32;;;;;;;6.07;1.90;;;;;;;33.18;26.99;98495.03;5390879;26;20059;-81
2022/06/03 12:24:40;;;;;;;3.65;2.00;;;;;;;33.17;24.56;98490.66;5389694;26;20127;-81
2022/06/03 12:27:10;;;;;;;;;;;;;;;32.39;27.77;98481.97;5390099;26;20126;-79
2022/06/03 12:29:41;;;;;;;3.15;1.90;;;;;;;32.46;27.80;98482.84;5390859;26;19980;-79
2022/06/03 12:32:15;;;;;;;2.30;1.70;;;;;;;33.59;25.38;98484.25;5369645;26;20085;-79
2022/06/03 12:34:42;;;;;;;3.25;1.77;;;;;;;33.56;25.80;98476.66;5370595;26;20395;-81
2022/06/03 12:37:28;;;;;;;4.43;1.95;;;;;;;33.01;25.70;98481.16;5389593;26;20059;-80
2022/06/03 12:39:59;;;;;;;2.97;1.97;;;;;;;32.25;27.64;98466.84;5370237;26;20051;-79
2022/06/03 12:42:27;;;;;;;3.97;2.00;;;;;;;32.83;27.88;98472.81;5390569;26;20081;-79
2022/06/03 12:45:33;;;;;;;4.32;2.20;;;;;;;32.09;27.42;98475.13;5367621;26;20071;-81
2022/06/03 12:48:35;;;;;;;4.20;2.45;;;;;;;32.43;27.53;98472.56;5390378;26;20051;-80
2022/06/03 12:51:23;;;;;;;6.37;2.30;;;;;;;33.30;26.92;98464.00;5390442;26;20510;-78
2022/06/03 12:54:29;;;;;;;4.53;2.10;;;;;;;33.32;27.49;98466.47;5390307;26;20407;-79
2022/06/03 12:57:09;;;;;;;4.10;2.30;;;;;;;32.43;29.41;98456.53;5274570;27;20069;-78
2022/06/03 12:59:41;;;;;;;5.97;2.20;;;;;;;32.47;28.46;98452.44;5258123;27;20143;-79
2022/06/03 13:02:14;;;;;;;5.32;2.33;;;;;;;32.39;28.70;98444.59;5345561;26;20099;-80
2022/06/03 13:04:44;;;;;;;6.35;2.37;;;;;;;32.31;29.42;98457.25;5389681;26;20071;-80
2022/06/03 13:07:30;;;;;;;5.07;2.30;;;;;;;32.38;30.69;98452.78;5388887;26;20386;-78
2022/06/03 13:10:03;;;;;;;5.45;2.33;;;;;;;33.34;27.97;98453.72;5390315;26;20864;-79
2022/06/03 13:12:36;;;;;;;3.70;2.25;;;;;;;33.38;28.52;98445.13;5390302;26;20075;-79
2022/06/03 13:15:22;;;;;;;5.22;2.20;;;;;;;33.29;29.17;98443.66;5389442;26;20060;-80
2022/06/03 13:18:13;;;;;;;5.80;2.30;;;;;;;32.53;28.82;98435.62;5389384;26;20070;-79